createdAt,value
2018-03-02T00:00:07.811Z,54.52
2018-03-02T00:05:54.583Z,53.43
2018-03-02T00:08:21.227Z,53.66
2018-03-02T00:11:00.899Z,54.38
2018-03-02T00:13:58.329Z,54.20
2018-03-02T00:16:25.076Z,54.36
2018-03-02T00:18:51.629Z,54.60
2018-03-02T00:21:18.284Z,54.39
2018-03-02T00:23:44.942Z,54.54
2018-03-02T00:26:12.443Z,54.45
2018-03-02T00:28:39.138Z,54.51
2018-03-02T00:31:05.819Z,55.04
2018-03-02T00:33:32.485Z,55.22
2018-03-02T00:35:59.998Z,55.64
2018-03-02T00:38:26.660Z,55.94
2018-03-02T00:40:53.249Z,55.63
2018-03-02T00:43:19.848Z,54.79
2018-03-02T00:45:46.616Z,55.42
2018-03-02T00:51:28.921Z,56.08
2018-03-02T00:53:55.623Z,56.04
2018-03-02T00:56:22.279Z,55.73
2018-03-02T00:58:48.889Z,55.89
2018-03-02T01:04:11.026Z,55.59
2018-03-02T01:06:38.345Z,56.45
2018-03-02T01:09:05.057Z,55.99
2018-03-02T01:11:31.659Z,56.52
2018-03-02T01:13:58.282Z,56.37
2018-03-02T01:16:24.950Z,55.51
2018-03-02T01:19:12.621Z,56.20
2018-03-02T01:21:39.366Z,57.02
2018-03-02T01:24:05.923Z,55.90
2018-03-02T01:26:32.495Z,56.46
2018-03-02T01:29:11.984Z,56.85
2018-03-02T01:31:38.745Z,57.11
2018-03-02T01:34:05.447Z,57.24
2018-03-02T01:36:40.815Z,56.30
2018-03-02T01:39:08.300Z,57.15
2018-03-02T01:41:35.024Z,57.26
2018-03-02T01:44:01.613Z,57.13
2018-03-02T01:46:28.294Z,57.01
2018-03-02T01:49:11.241Z,57.59
2018-03-02T01:51:48.940Z,57.26
2018-03-02T01:56:53.279Z,57.23
2018-03-02T01:59:19.960Z,57.24
2018-03-02T02:01:47.350Z,57.11
2018-03-02T02:04:14.100Z,57.74
2018-03-02T02:06:41.507Z,57.59
2018-03-02T02:09:08.206Z,57.10
2018-03-02T02:11:34.801Z,57.85
2018-03-02T02:14:03.544Z,56.74
2018-03-02T02:16:30.263Z,57.70
2018-03-02T02:18:56.901Z,57.86
2018-03-02T02:21:23.521Z,58.11
2018-03-02T02:23:52.101Z,57.99
2018-03-02T02:26:18.720Z,58.31
2018-03-02T02:28:47.198Z,58.24
2018-03-02T02:31:13.846Z,57.59
2018-03-02T02:33:41.431Z,58.66
2018-03-02T02:36:08.095Z,58.59
2018-03-02T02:38:34.854Z,58.00
2018-03-02T02:41:02.110Z,57.73
2018-03-02T02:43:32.380Z,58.52
2018-03-02T02:46:03.466Z,58.46
2018-03-02T02:48:30.196Z,58.94
2018-03-02T02:50:56.842Z,58.57
2018-03-02T02:53:27.006Z,58.56
2018-03-02T02:55:53.715Z,58.68
2018-03-02T02:58:20.366Z,58.54
2018-03-02T03:00:51.113Z,59.13
2018-03-02T03:03:20.183Z,58.89
2018-03-02T03:05:48.330Z,58.73
2018-03-02T03:08:15.038Z,58.97
2018-03-02T03:10:41.655Z,58.01
2018-03-02T03:13:08.253Z,59.05
2018-03-02T03:15:34.882Z,59.10
2018-03-02T03:18:01.519Z,58.99
2018-03-02T03:20:28.245Z,58.98
2018-03-02T03:22:54.868Z,58.56
2018-03-02T03:25:21.531Z,59.29
2018-03-02T03:27:48.944Z,58.91
2018-03-02T03:30:15.520Z,59.10
2018-03-02T03:32:42.196Z,59.63
2018-03-02T03:35:11.210Z,59.60
2018-03-02T03:37:38.581Z,59.74
2018-03-02T03:40:05.204Z,59.55
2018-03-02T03:42:35.177Z,59.88
2018-03-02T03:45:01.871Z,58.79
2018-03-02T03:47:28.502Z,58.51
2018-03-02T03:49:55.159Z,59.15
2018-03-02T03:52:21.792Z,59.74
2018-03-02T03:54:48.381Z,59.20
2018-03-02T03:57:23.500Z,59.18
2018-03-02T03:59:50.251Z,59.42
2018-03-02T04:02:17.609Z,59.17
2018-03-02T04:04:44.203Z,59.62
2018-03-02T04:07:10.876Z,59.56
2018-03-02T04:09:38.212Z,59.92
2018-03-02T04:12:04.817Z,59.50
2018-03-02T04:14:31.536Z,59.51
2018-03-02T04:17:05.967Z,59.57
2018-03-02T04:19:32.717Z,59.89
2018-03-02T04:21:59.448Z,59.70
2018-03-02T04:24:26.182Z,59.22
2018-03-02T04:26:52.837Z,59.80
2018-03-02T04:29:33.774Z,60.01
2018-03-02T04:32:01.059Z,59.91
2018-03-02T04:34:27.684Z,59.91
2018-03-02T04:36:55.119Z,59.44
2018-03-02T04:42:11.948Z,59.67
2018-03-02T04:44:38.554Z,59.26
2018-03-02T04:47:05.264Z,60.45
2018-03-02T04:49:31.821Z,60.10
2018-03-02T04:51:58.396Z,60.00
2018-03-02T04:54:45.953Z,60.64
2018-03-02T04:57:13.325Z,60.56
2018-03-02T04:59:41.867Z,59.53
2018-03-02T05:02:08.444Z,60.26
2018-03-02T05:04:35.162Z,59.75
2018-03-02T05:10:12.529Z,61.41
2018-03-02T05:12:39.904Z,60.47
2018-03-02T05:15:06.477Z,60.47
2018-03-02T05:17:33.110Z,60.76
2018-03-02T05:23:27.794Z,60.94
2018-03-02T05:28:54.459Z,60.26
2018-03-02T05:31:45.622Z,61.01
2018-03-02T05:34:31.179Z,61.35
2018-03-02T05:40:22.209Z,61.50
2018-03-02T05:42:48.839Z,61.67
2018-03-02T05:45:15.482Z,61.12
2018-03-02T05:47:42.446Z,61.23
2018-03-02T05:53:11.446Z,60.91
2018-03-02T05:55:49.033Z,62.07
2018-03-02T05:58:16.396Z,62.01
2018-03-02T06:00:43.152Z,62.08
2018-03-02T06:03:18.286Z,62.05
2018-03-02T06:05:44.910Z,62.21
2018-03-02T06:08:11.510Z,61.70
2018-03-02T06:10:38.154Z,62.27
2018-03-02T06:13:04.728Z,61.83
2018-03-02T06:15:31.358Z,61.92
2018-03-02T06:17:58.047Z,62.36
2018-03-02T06:20:52.517Z,62.09
2018-03-02T06:23:19.952Z,62.74
2018-03-02T06:25:46.541Z,62.15
2018-03-02T06:28:20.149Z,62.48
2018-03-02T06:30:48.962Z,61.65
2018-03-02T06:36:31.224Z,62.76
2018-03-02T06:38:57.788Z,62.13
2018-03-02T06:44:26.368Z,63.38
2018-03-02T06:46:55.518Z,63.63
2018-03-02T06:49:22.216Z,63.72
2018-03-02T06:51:48.824Z,63.21
2018-03-02T06:54:15.441Z,62.79
2018-03-02T06:56:42.765Z,62.72
2018-03-02T06:59:09.449Z,62.76
2018-03-02T07:01:36.827Z,63.06
2018-03-02T07:04:03.433Z,63.22
2018-03-02T07:06:35.833Z,63.44
2018-03-02T07:09:03.323Z,63.63
2018-03-02T07:11:29.938Z,62.76
2018-03-02T07:13:56.574Z,62.62
2018-03-02T07:16:23.343Z,62.69
2018-03-02T07:19:44.994Z,62.50
2018-03-02T07:22:11.634Z,63.34
2018-03-02T07:24:38.423Z,63.48
2018-03-02T07:27:24.868Z,62.65
2018-03-02T07:29:51.469Z,62.77
2018-03-02T07:32:18.106Z,63.52
2018-03-02T07:34:47.962Z,62.77
2018-03-02T07:37:15.444Z,62.53
2018-03-02T07:39:42.270Z,62.86
2018-03-02T07:42:08.859Z,63.06
2018-03-02T07:44:35.481Z,62.34
2018-03-02T07:47:02.130Z,61.68
2018-03-02T07:49:28.769Z,61.96
2018-03-02T07:52:17.282Z,62.25
2018-03-02T07:57:43.813Z,61.37
2018-03-02T08:02:57.688Z,61.55
2018-03-02T08:05:26.231Z,60.67
2018-03-02T08:07:52.930Z,60.28
2018-03-02T08:10:48.109Z,60.79
2018-03-02T08:13:14.719Z,61.12
2018-03-02T08:15:56.930Z,60.84
2018-03-02T08:18:53.185Z,60.60
2018-03-02T08:21:19.800Z,60.88
2018-03-02T08:23:46.420Z,60.45
2018-03-02T08:26:13.064Z,60.01
2018-03-02T08:28:49.118Z,60.50
2018-03-02T08:33:49.913Z,60.14
2018-03-02T08:36:18.586Z,59.65
2018-03-02T08:38:45.177Z,59.87
2018-03-02T08:41:18.210Z,59.35
2018-03-02T08:43:44.823Z,59.71
2018-03-02T08:46:18.562Z,59.75
2018-03-02T08:48:45.221Z,59.20
2018-03-02T08:51:11.845Z,59.34
2018-03-02T08:53:39.350Z,59.27
2018-03-02T08:56:05.971Z,58.08
2018-03-02T08:58:32.737Z,58.82
2018-03-02T09:00:59.372Z,58.11
2018-03-02T09:03:25.948Z,58.66
2018-03-02T09:05:52.532Z,58.18
2018-03-02T09:08:19.150Z,58.11
2018-03-02T09:10:45.806Z,57.82
2018-03-02T09:13:12.376Z,57.84
2018-03-02T09:15:39.368Z,57.47
2018-03-02T09:18:05.980Z,57.66
2018-03-02T09:20:32.604Z,57.21
2018-03-02T09:22:59.355Z,57.22
2018-03-02T09:25:26.238Z,56.99
2018-03-02T09:27:52.846Z,57.00
2018-03-02T09:30:19.576Z,56.29
2018-03-02T09:32:46.151Z,56.09
2018-03-02T09:35:12.755Z,54.94
2018-03-02T09:37:40.064Z,55.01
2018-03-02T09:40:06.685Z,54.79
2018-03-02T09:42:33.998Z,54.64
2018-03-02T09:45:00.866Z,54.28
2018-03-02T09:47:27.493Z,53.83
2018-03-02T09:49:54.085Z,54.00
2018-03-02T09:52:20.709Z,53.36
2018-03-02T09:54:47.451Z,53.33
2018-03-02T09:57:14.070Z,52.82
2018-03-02T09:59:40.663Z,52.66
2018-03-02T10:02:07.435Z,52.45
2018-03-02T10:04:34.062Z,52.67
2018-03-02T10:07:00.616Z,51.92
2018-03-02T10:09:27.242Z,51.87
2018-03-02T10:11:53.801Z,51.82
2018-03-02T10:14:20.536Z,51.92
2018-03-02T10:16:47.116Z,51.36
2018-03-02T10:19:13.684Z,50.69
2018-03-02T10:21:40.369Z,51.24
2018-03-02T10:24:07.031Z,50.90
2018-03-02T10:26:33.687Z,51.44
2018-03-02T10:29:00.342Z,51.38
2018-03-02T10:31:28.347Z,51.25
2018-03-02T10:34:12.030Z,51.00
2018-03-02T10:36:38.633Z,50.58
2018-03-02T10:39:14.023Z,50.73
2018-03-02T10:41:40.676Z,51.02
2018-03-02T10:44:07.301Z,50.16
2018-03-02T10:46:33.998Z,50.10
2018-03-02T10:49:00.860Z,50.00
2018-03-02T10:51:41.461Z,49.85
2018-03-02T10:54:08.253Z,49.52
2018-03-02T10:56:34.971Z,49.81
2018-03-02T10:59:08.988Z,49.39
2018-03-02T11:01:43.597Z,49.61
2018-03-02T11:04:10.301Z,48.93
2018-03-02T11:06:38.039Z,49.11
2018-03-02T11:09:12.475Z,48.97
2018-03-02T11:11:42.776Z,49.16
2018-03-02T11:14:41.300Z,48.92
2018-03-02T11:17:09.008Z,48.52
2018-03-02T11:19:35.712Z,48.62
2018-03-02T11:22:02.359Z,48.39
2018-03-02T11:24:28.918Z,48.25
2018-03-02T11:27:04.026Z,47.78
2018-03-02T11:29:44.329Z,47.70
2018-03-02T12:05:38.263Z,46.73
2018-03-02T12:08:04.861Z,46.66
2018-03-02T12:10:31.437Z,46.58
2018-03-02T12:13:16.441Z,46.07
2018-03-02T12:15:43.270Z,45.83
2018-03-02T12:18:10.053Z,45.93
2018-03-02T12:30:28.734Z,45.84
2018-03-02T12:32:55.349Z,45.32
2018-03-02T12:38:41.832Z,44.36
2018-03-02T12:41:08.414Z,44.30
2018-03-02T12:43:35.113Z,43.80
2018-03-02T12:52:18.535Z,44.27
2018-03-02T12:58:06.641Z,44.89
2018-03-02T13:03:48.075Z,44.47
2018-03-02T13:06:14.670Z,44.85
2018-03-02T13:08:41.272Z,44.90
2018-03-02T13:11:31.294Z,45.00
2018-03-02T13:13:57.932Z,44.40
2018-03-02T13:25:24.922Z,44.38
2018-03-02T13:34:10.480Z,44.31
2018-03-02T13:36:58.493Z,44.58
2018-03-02T13:42:35.810Z,44.48
2018-03-02T13:51:35.521Z,43.94
2018-03-02T13:54:02.140Z,44.08
2018-03-02T13:59:25.972Z,43.90
2018-03-02T14:01:53.368Z,43.94
2018-03-02T14:07:21.295Z,43.74
2018-03-02T14:09:47.872Z,44.17
2018-03-02T14:15:24.065Z,43.91
2018-03-02T14:17:50.748Z,43.92
2018-03-02T14:23:27.135Z,43.80
2018-03-02T14:32:41.524Z,44.26
2018-03-02T14:35:14.585Z,44.37
2018-03-02T14:38:09.523Z,44.25
2018-03-02T14:40:36.218Z,44.18
2018-03-02T14:43:23.699Z,44.51
2018-03-02T14:45:50.759Z,44.29
2018-03-02T14:48:17.544Z,44.54
2018-03-02T14:50:48.161Z,44.39
2018-03-02T14:59:34.579Z,44.58
2018-03-02T15:05:01.435Z,44.43
2018-03-02T15:10:37.454Z,44.51
2018-03-02T15:13:09.716Z,44.47
2018-03-02T15:15:36.284Z,44.33
2018-03-02T15:18:02.896Z,44.54
2018-03-02T15:23:42.578Z,44.30
2018-03-02T15:26:09.202Z,44.24
2018-03-02T15:28:35.807Z,44.26
2018-03-02T15:34:23.056Z,44.50
2018-03-02T15:40:26.793Z,44.45
2018-03-02T15:42:53.419Z,44.45
2018-03-02T15:45:20.148Z,44.43
2018-03-02T15:47:46.858Z,44.53
2018-03-02T15:50:15.545Z,44.22
2018-03-02T15:52:44.041Z,44.51
2018-03-02T15:55:12.827Z,44.44
2018-03-02T15:57:39.466Z,44.10
2018-03-02T16:00:06.835Z,44.26
2018-03-02T16:02:34.235Z,44.34
2018-03-02T16:05:00.859Z,44.58
2018-03-02T16:07:50.211Z,44.72
2018-03-02T16:10:17.548Z,45.07
2018-03-02T16:12:44.169Z,45.12
2018-03-02T16:15:10.732Z,45.20
2018-03-02T16:17:37.354Z,45.42
2018-03-02T16:20:04.732Z,45.53
2018-03-02T16:22:32.062Z,46.13
2018-03-02T16:24:58.919Z,45.87
2018-03-02T16:27:39.968Z,46.01
2018-03-02T16:30:09.519Z,46.20
2018-03-02T16:32:37.123Z,46.28
2018-03-02T16:35:04.452Z,46.46
2018-03-02T16:37:32.043Z,46.64
2018-03-02T16:40:00.492Z,46.74
2018-03-02T16:42:27.279Z,46.72
2018-03-02T16:44:53.916Z,46.82
2018-03-02T16:47:20.602Z,47.21
2018-03-02T16:49:47.254Z,47.49
2018-03-02T16:52:31.803Z,47.73
2018-03-02T16:54:58.414Z,47.71
2018-03-02T16:57:25.250Z,47.59
2018-03-02T16:59:51.892Z,47.91
2018-03-02T17:02:19.249Z,47.78
2018-03-02T17:04:45.921Z,47.90
2018-03-02T17:07:12.565Z,47.98
2018-03-02T17:09:46.591Z,48.00
2018-03-02T17:12:24.399Z,48.18
2018-03-02T17:15:13.697Z,48.59
2018-03-02T17:17:46.324Z,48.68
2018-03-02T17:20:15.554Z,48.84
2018-03-02T17:22:43.826Z,48.91
2018-03-02T17:25:11.692Z,49.12
2018-03-02T17:27:39.931Z,49.08
2018-03-02T17:30:14.546Z,49.37
2018-03-02T17:32:45.556Z,49.20
2018-03-02T17:35:16.621Z,49.42
2018-03-02T17:37:44.388Z,49.66
2018-03-02T17:40:12.086Z,49.35
2018-03-02T17:42:39.390Z,49.32
2018-03-02T17:45:06.369Z,49.76
2018-03-02T17:47:34.506Z,49.61
2018-03-02T17:50:01.508Z,49.90
2018-03-02T17:52:29.676Z,49.44
2018-03-02T17:54:57.208Z,49.66
2018-03-02T17:57:24.794Z,49.90
2018-03-02T17:59:51.771Z,50.04
2018-03-02T18:02:19.489Z,50.24
2018-03-02T18:04:56.996Z,50.25
2018-03-02T18:07:26.045Z,50.29
2018-03-02T18:09:53.118Z,50.24
2018-03-02T18:12:31.558Z,50.49
2018-03-02T18:15:02.462Z,50.51
2018-03-02T18:17:32.728Z,50.60
2018-03-02T18:20:00.651Z,50.92
2018-03-02T18:22:29.083Z,50.76
2018-03-02T18:24:55.804Z,50.99
2018-03-02T18:27:26.423Z,50.78
2018-03-02T18:29:53.123Z,50.88
2018-03-02T18:32:20.650Z,51.65
2018-03-02T18:34:48.114Z,51.48
2018-03-02T18:37:14.866Z,51.76
2018-03-02T18:39:41.556Z,51.46
2018-03-02T18:42:08.282Z,51.95
2018-03-02T18:44:36.079Z,51.83
2018-03-02T18:47:03.706Z,51.86
2018-03-02T18:49:30.352Z,51.90
2018-03-02T18:51:56.979Z,52.10
2018-03-02T18:54:23.700Z,52.05
2018-03-02T18:56:50.690Z,52.28
2018-03-02T18:59:20.879Z,51.94
2018-03-02T19:01:53.342Z,52.75
2018-03-02T19:04:19.986Z,52.88
2018-03-02T19:06:46.564Z,52.94
2018-03-02T19:09:13.582Z,53.18
2018-03-02T19:11:40.192Z,53.03
2018-03-02T19:14:06.995Z,53.02
2018-03-02T19:16:33.558Z,53.23
2018-03-02T19:19:00.140Z,53.55
2018-03-02T19:21:26.734Z,53.29
2018-03-02T19:23:53.366Z,53.01
2018-03-02T19:26:19.998Z,53.33
2018-03-02T19:28:46.576Z,53.46
2018-03-02T19:31:13.337Z,52.69
2018-03-02T19:33:39.936Z,52.93
2018-03-02T19:36:07.887Z,53.20
2018-03-02T19:38:35.423Z,52.69
2018-03-02T19:41:10.431Z,53.42
2018-03-02T19:43:40.018Z,53.78
2018-03-02T19:46:09.062Z,53.91
2018-03-02T19:48:38.127Z,54.10
2018-03-02T19:51:06.890Z,54.36
2018-03-02T19:53:35.118Z,54.44
2018-03-02T19:56:05.453Z,54.38
2018-03-02T19:58:33.114Z,54.42
2018-03-02T20:01:01.329Z,54.86
2018-03-02T20:03:30.632Z,54.66
2018-03-02T20:09:03.195Z,55.17
2018-03-02T20:11:31.350Z,55.39
2018-03-02T20:13:59.658Z,55.58
2018-03-02T20:16:35.806Z,55.72
2018-03-02T20:19:04.278Z,55.59
2018-03-02T20:21:32.401Z,55.73
2018-03-02T20:24:12.613Z,55.40
2018-03-02T20:26:50.806Z,55.14
2018-03-02T20:29:18.503Z,54.73
2018-03-02T20:31:45.719Z,55.14
2018-03-02T20:34:20.157Z,55.06
2018-03-02T20:36:48.149Z,55.84
2018-03-02T20:39:16.841Z,55.77
2018-03-02T20:41:46.718Z,55.82
2018-03-02T20:58:19.504Z,56.25
2018-03-02T21:00:47.105Z,55.97
2018-03-02T21:03:15.260Z,56.48
2018-03-02T21:05:45.313Z,56.28
2018-03-02T21:08:12.097Z,56.07
2018-03-02T21:10:42.392Z,55.53
2018-03-02T21:13:17.344Z,55.40
2018-03-02T21:15:44.081Z,55.25
2018-03-02T21:18:10.837Z,55.13
2018-03-02T21:20:37.442Z,54.55
2018-03-02T21:23:04.088Z,54.54
2018-03-02T21:25:30.913Z,54.49
2018-03-02T21:27:58.257Z,53.36
2018-03-02T21:30:28.614Z,53.21
2018-03-02T21:33:00.418Z,52.83
2018-03-02T21:35:27.999Z,52.66
2018-03-02T21:38:01.803Z,52.96
2018-03-02T21:40:28.699Z,53.69
2018-03-02T21:42:55.385Z,52.40
2018-03-02T21:45:22.158Z,52.76
2018-03-02T21:47:49.903Z,52.47
2018-03-02T21:50:20.592Z,52.27
2018-03-02T21:52:49.544Z,53.08
2018-03-02T21:55:25.902Z,52.51
2018-03-02T21:57:53.366Z,52.84
2018-03-02T22:00:20.118Z,52.59
2018-03-02T22:02:51.926Z,52.49
2018-03-02T22:05:18.721Z,52.64
2018-03-02T22:07:45.913Z,52.52
2018-03-02T22:10:12.932Z,54.17
2018-03-02T22:12:40.702Z,54.01
2018-03-02T22:15:07.384Z,53.12
2018-03-02T22:17:34.833Z,52.44
2018-03-02T22:20:02.479Z,52.55
2018-03-02T22:22:29.157Z,53.19
2018-03-02T22:24:56.022Z,53.12
2018-03-02T22:27:22.855Z,52.85
2018-03-02T22:29:49.506Z,52.75
2018-03-02T22:32:16.208Z,52.67
2018-03-02T22:34:43.156Z,52.97
2018-03-02T22:37:12.185Z,53.00
2018-03-02T22:39:38.912Z,53.25
2018-03-02T22:42:07.528Z,53.02
2018-03-02T22:44:34.196Z,53.48
2018-03-02T22:47:05.321Z,54.08
2018-03-02T22:49:31.902Z,53.64
2018-03-02T22:51:58.503Z,53.88
2018-03-02T22:54:25.295Z,54.14
2018-03-02T22:56:52.679Z,54.28
2018-03-02T22:59:19.480Z,54.32
2018-03-02T23:01:46.242Z,54.50
2018-03-02T23:04:25.439Z,55.25
2018-03-02T23:06:52.065Z,57.45
2018-03-02T23:09:18.713Z,56.81
2018-03-02T23:11:45.341Z,57.39
2018-03-02T23:14:11.966Z,57.68
2018-03-02T23:16:38.684Z,59.11
2018-03-02T23:19:05.846Z,58.75
2018-03-02T23:21:32.605Z,58.69
2018-03-02T23:23:59.638Z,59.35
2018-03-02T23:26:27.125Z,58.80
2018-03-02T23:28:53.798Z,58.90
2018-03-02T23:31:20.892Z,59.43
2018-03-02T23:33:47.648Z,60.14
2018-03-02T23:36:14.774Z,60.79
2018-03-02T23:38:42.478Z,64.66
2018-03-02T23:41:09.150Z,62.27
2018-03-02T23:43:36.213Z,61.98
2018-03-02T23:46:36.641Z,63.03
2018-03-02T23:49:05.935Z,65.96
2018-03-02T23:51:53.193Z,64.77
2018-03-02T23:54:26.806Z,65.32
2018-03-02T23:57:00.519Z,68.71
2018-03-02T23:59:32.276Z,68.18
